Hovedside
METAR-TAF:

METAR-TAF

Lufthavner :

Vardø, Norge

Vardø lufthavn

breddegrad: 70-21N, lengdegrad: 031-03E, høyde over havet: 12 m

Gjeldene værobservasjon

Denne rapporten ble laget for 50 minutter siden, klokken 19:50 UTC
Vind 37 kt fra Nordvest med vindkast opp mot 47 kt
Temperatur 1°C
Luftfuktighet 93%
Trykk 981 hPa
Sikt: 7000 m
lette snøbyger, lett hagl eller graupel

METAR: ENSS 261950Z 31037G47KT 7000 -SHSNGS VV014 01/M00 Q0981 RMK WIND 500FT 31033G52KT

Tid: 22:40 (20:40 UTC)


TAF: fraværende

Værobservasjoner og værvarsel for over 4000 flyplasser (METAR- og TAF-rapporter).

Tilgjengelige stasjoner er representert av de røde og gule prikkene på kartet.

Hold musepekeren over prikken for å se navnet på stasjonen.

Klikk så for å se værobservasjoner og -varsler.

For å forandre kartet kan du klikke på den grønne knappen med svart kryss for å zoome inn, på den grønne knappen med strek for å zoome ut, eller på de grønne pilene for å se tilstøtende kart.


METAR-TAF: